Airport ID:WIMN
Update Time (UTC):29/09/2021 02:17:00
Wind Speed (Knots):2
Wind Direction (Magnetic):040
Temperature (°C):19
Dew Point (°C):17
Humidity (%):88
Altimeter (hPa):1019
Density Altitude (Feet):6400
Visibility (Meters):10000
Clouds (Hundreds of feet):BKN010 OVC080
Present Weather:
METAR:METAR WIMN 290200Z 02003KT 7000 BKN012 19/17 Q1019 NOSIG=

The data displayed is for advisory purposes only and is not to be used for flight planning or operations.